Beverly, West Virginia
Current Conditions -  °F | °C
As of 3:44 PM on Wednesday 26 Nov 2014 (Local Time) from KEKN Reporting Station
Light Snow Light Snow  
Wind Chill: 34°   Ceiling: 1700
Heat Index: 34°   Visibility: 4mi
Dew Point: 34°   Wind: 0mph
Humidity: 100%   Direction: NA
Pressure: 29.97"   Gusts: NA
Location:  38.84°N, 79.88°W
Report Text: KEKN 262044Z AUTO 00000KT 4SM -SN BR BKN017 OVC022 01/01 A2997 RMK AO2 P0001 T00110011 TSNO
Loading
Personal Weather Stations






























Interactive Weather Map New forecast layout! Learn more

10-Day Weather Forecast

Advertisements
Track Severe Weather on mobile